My Little Violet — ZCPE7 — position and weather

sailwx.info

Track history (hours):
 
Tides and Currents Weather Stations Pressure Air Temp Water Temp Dewpoint Dewpoint Depression Visibility Wind Speed Wind Dir Waves Ship Positions

My Little Violet

Last reported at 2015-Sep-01 18:31 UTC. Time now 2015-Sep-02 06:33 UTC.
Position N 43°38' E 007°30'.

Length 45 m.

Type: Pleasure craft. MMSI: 319496000.

Date/timePositionNaut miles runAvg speedWind from/ knotsBaromVisibWave heightAir tempDewpointWater temp
2015-Sep-01 18:31N 43°38' E 007°30'1010.5
2015-Sep-01 17:33N 43°34' E 007°17'1110.8
2015-Sep-01 16:33N 43°30' E 007°03'5 4.9
2015-Sep-01 15:33N 43°31' E 006°57'0 0.0
2015-Sep-01 14:33N 43°31' E 006°57'0 0.0
2015-Sep-01 13:33N 43°31' E 006°57'6 5.9
2015-Sep-01 12:33N 43°26' E 006°55'1111.5
2015-Sep-01 11:33N 43°19' E 006°42'4 4.1
2015-Sep-01 10:33N 43°17' E 006°38'0 0.0
2015-Sep-01 09:33N 43°17' E 006°38'0 0.0
2015-Sep-01 08:33N 43°17' E 006°38'0 0.0
2015-Sep-01 07:33N 43°17' E 006°38'0 0.0
2015-Aug-31 20:33N 43°17' E 006°38'0 0.0
2015-Aug-31 19:34N 43°17' E 006°38'0 0.0
2015-Aug-31 18:34N 43°17' E 006°38'0 0.0
2015-Aug-31 17:34N 43°17' E 006°38'0 0.0
2015-Aug-31 16:32N 43°17' E 006°38'0 0.0
2015-Aug-31 15:33N 43°17' E 006°38'0 0.0
2015-Aug-31 14:33N 43°17' E 006°38'0 0.0
2015-Aug-31 13:34N 43°17' E 006°38'0 0.0
2015-Aug-31 12:34N 43°17' E 006°38'0 0.0
2015-Aug-31 11:33N 43°17' E 006°38'0 0.0
2015-Aug-31 10:33N 43°17' E 006°38'0 0.0
2015-Aug-31 09:33N 43°17' E 006°38'0 0.0
2015-Aug-31 08:33N 43°17' E 006°38'0 0.0
2015-Aug-31 07:33N 43°17' E 006°38'0 0.0
2015-Aug-31 06:33N 43°17' E 006°38'0 0.0
2015-Aug-31 05:33N 43°17' E 006°38'0 0.0
2015-Aug-31 04:34N 43°17' E 006°38'0 0.0
2015-Aug-31 03:33N 43°17' E 006°38'0 0.0
2015-Aug-31 02:33N 43°17' E 006°38'0 0.0
2015-Aug-31 01:33N 43°17' E 006°38'0 0.0
2015-Aug-31 00:34N 43°17' E 006°38'0 0.0
2015-Aug-30 23:33N 43°17' E 006°38'0 0.0
2015-Aug-30 22:33N 43°17' E 006°38'0 0.0
2015-Aug-30 21:33N 43°17' E 006°38'0 0.0
2015-Aug-30 20:33N 43°17' E 006°38'0 0.0
2015-Aug-30 19:33N 43°17' E 006°38'1 1.2
2015-Aug-30 18:33N 43°17' E 006°39'3 3.4
2015-Aug-30 17:33N 43°14' E 006°40'0 0.0
2015-Aug-30 16:34N 43°14' E 006°40'0 0.0
2015-Aug-30 15:33N 43°14' E 006°40'0 0.0
2015-Aug-30 14:33N 43°14' E 006°40'0 0.0
2015-Aug-30 13:34N 43°14' E 006°40'0 0.0
2015-Aug-30 12:33N 43°14' E 006°40'3 3.2
2015-Aug-30 11:33N 43°16' E 006°38'0 0.0
2015-Aug-29 19:30N 43°16' E 006°38'0 0.0
2015-Aug-29 18:33N 43°16' E 006°38'0 0.0
2015-Aug-29 16:31N 43°16' E 006°38'0 0.0
2015-Aug-29 15:29N 43°16' E 006°38'3 3.2
2015-Aug-29 14:33N 43°14' E 006°41'1 0.7
2015-Aug-29 13:33N 43°14' E 006°40'0 0.0
2015-Aug-29 12:34N 43°14' E 006°40'0 0.0
2015-Aug-29 11:33N 43°14' E 006°40'3 3.0
2015-Aug-29 10:33N 43°17' E 006°39'2 1.5
2015-Aug-29 09:33N 43°17' E 006°37'0 0.0
2015-Aug-29 08:33N 43°17' E 006°37'0 0.0
2015-Aug-28 22:08N 43°17' E 006°37'0 0.0
2015-Aug-28 21:33N 43°17' E 006°37'0 0.0
2015-Aug-28 20:33N 43°17' E 006°37'0 0.0
2015-Aug-28 19:33N 43°17' E 006°37'2 2.1
2015-Aug-28 18:33N 43°17' E 006°40'4 3.7
2015-Aug-28 17:33N 43°14' E 006°40'0 0.0
2015-Aug-28 16:33N 43°14' E 006°40'0 0.0
2015-Aug-28 15:33N 43°14' E 006°40'0 0.0
2015-Aug-28 14:33N 43°14' E 006°40'0 0.0
2015-Aug-28 13:33N 43°14' E 006°40'0 0.0
2015-Aug-28 12:33N 43°14' E 006°40'4 3.6
2015-Aug-28 11:33N 43°16' E 006°37'0 0.1
2015-Aug-28 10:33N 43°16' E 006°37'0 0.0
2015-Aug-28 09:33N 43°16' E 006°37'1 0.6
2015-Aug-28 08:33N 43°16' E 006°38'0 0.0
2015-Aug-27 21:03N 43°16' E 006°38'0 0.0
2015-Aug-27 18:21N 43°16' E 006°38'0 0.0
2015-Aug-27 16:27N 43°16' E 006°38'0 0.0
2015-Aug-27 13:24N 43°16' E 006°38'0 0.0
2015-Aug-27 12:30N 43°16' E 006°38'0 0.0
2015-Aug-27 11:33N 43°16' E 006°38'0 0.0
2015-Aug-27 07:26N 43°16' E 006°38'0 0.0
2015-Aug-27 06:32N 43°16' E 006°38'0 0.0
2015-Aug-27 05:32N 43°16' E 006°38'0 0.0
2015-Aug-27 04:32N 43°16' E 006°38'0 0.0
2015-Aug-27 03:32N 43°16' E 006°38'0 0.0
2015-Aug-27 02:32N 43°16' E 006°38'0 0.0
2015-Aug-27 01:32N 43°16' E 006°38'0 0.0
2015-Aug-27 00:32N 43°16' E 006°38'0 0.0
2015-Aug-26 23:32N 43°16' E 006°38'0 0.0
2015-Aug-26 22:32N 43°16' E 006°38'0 0.0
2015-Aug-26 21:09N 43°16' E 006°38'0 0.0
2015-Aug-26 20:32N 43°16' E 006°38'0 0.0
2015-Aug-26 19:32N 43°16' E 006°38'0 0.0
2015-Aug-26 18:26N 43°16' E 006°38'0 0.0
2015-Aug-26 17:32N 43°16' E 006°38'0 0.0
2015-Aug-26 16:32N 43°16' E 006°38'0 0.0
2015-Aug-26 15:32N 43°16' E 006°38'0 0.0
2015-Aug-26 14:32N 43°16' E 006°38'0 0.0
2015-Aug-26 13:32N 43°16' E 006°38'0 0.0
2015-Aug-26 12:33N 43°16' E 006°38'0 0.0
2015-Aug-26 11:33N 43°16' E 006°38'0 0.0
2015-Aug-26 10:33N 43°16' E 006°38'0 0.0
2015-Aug-26 09:33N 43°16' E 006°38'0 0.0
2015-Aug-26 08:33N 43°16' E 006°38'0 0.0
2015-Aug-26 07:33N 43°16' E 006°38'0 0.0
2015-Aug-26 06:33N 43°16' E 006°38'0 0.0
2015-Aug-26 05:33N 43°16' E 006°38'0 0.0
2015-Aug-26 04:33N 43°16' E 006°38'0 0.0
2015-Aug-26 03:33N 43°16' E 006°38'0 0.0
2015-Aug-26 02:33N 43°16' E 006°38'0 0.0
2015-Aug-26 01:33N 43°16' E 006°38'0 0.0
2015-Aug-26 00:33N 43°16' E 006°38'0 0.0
2015-Aug-25 23:33N 43°16' E 006°38'0 0.0
2015-Aug-25 22:33N 43°16' E 006°38'0 0.0
2015-Aug-25 21:33N 43°16' E 006°38'0 0.0
2015-Aug-25 20:33N 43°16' E 006°38'0 0.0
2015-Aug-25 19:33N 43°16' E 006°38'0 0.0
2015-Aug-25 18:33N 43°16' E 006°38'0 0.0
2015-Aug-25 17:33N 43°16' E 006°38'0 0.0
2015-Aug-25 16:33N 43°16' E 006°38'0 0.0
2015-Aug-25 15:33N 43°16' E 006°38'0 0.0
2015-Aug-25 14:33N 43°16' E 006°38'0 0.0
2015-Aug-25 13:33N 43°16' E 006°38'0 0.0
2015-Aug-25 12:33N 43°16' E 006°38'0 0.0
2015-Aug-25 11:33N 43°16' E 006°38'0 0.0
2015-Aug-25 10:33N 43°16' E 006°38'0 0.0
2015-Aug-25 09:33N 43°16' E 006°38'0 0.0
2015-Aug-25 08:33N 43°16' E 006°38'0 0.0
2015-Aug-25 07:33N 43°16' E 006°38'0 0.0
2015-Aug-25 06:33N 43°16' E 006°38'0 0.0
2015-Aug-25 05:33N 43°16' E 006°38'0 0.0
2015-Aug-25 04:33N 43°16' E 006°38'0 0.0
2015-Aug-25 03:33N 43°16' E 006°38'0 0.0
2015-Aug-25 02:33N 43°16' E 006°38'0 0.0
2015-Aug-25 01:33N 43°16' E 006°38'0 0.0
2015-Aug-25 00:33N 43°16' E 006°38'0 0.0
2015-Aug-24 23:33N 43°16' E 006°38'0 0.0
2015-Aug-24 22:33N 43°16' E 006°38'0 0.0
2015-Aug-24 21:33N 43°16' E 006°38'0 0.0
2015-Aug-24 20:33N 43°16' E 006°38'0 0.0
2015-Aug-24 19:33N 43°16' E 006°38'0 0.0
2015-Aug-24 18:33N 43°16' E 006°38'0 0.0
2015-Aug-24 17:33N 43°16' E 006°38'0 0.0
2015-Aug-24 16:25N 43°16' E 006°38'0 0.0
2015-Aug-24 15:33N 43°16' E 006°38'0 0.0
2015-Aug-24 14:22N 43°16' E 006°38'0 0.0
2015-Aug-24 13:33N 43°16' E 006°38'0 0.0
2015-Aug-24 12:33N 43°16' E 006°38'0 0.1
2015-Aug-24 11:32N 43°16' E 006°38'0 0.4
2015-Aug-24 10:33N 43°16' E 006°37'0 0.0
2015-Aug-24 09:34N 43°16' E 006°37'0 0.0
2015-Aug-24 08:33N 43°16' E 006°37'0 0.0
2015-Aug-24 07:33N 43°16' E 006°37'0 0.0
2015-Aug-24 06:34N 43°16' E 006°37'0 0.0
2015-Aug-24 05:33N 43°16' E 006°37'0 0.0
2015-Aug-24 04:33N 43°16' E 006°37'0 0.0
2015-Aug-24 03:33N 43°16' E 006°37'0 0.0
2015-Aug-24 02:33N 43°16' E 006°37'0 0.0
2015-Aug-24 01:33N 43°16' E 006°37'0 0.0
2015-Aug-24 00:33N 43°16' E 006°37'0 0.0
2015-Aug-23 23:33N 43°16' E 006°37'0 0.0
2015-Aug-23 22:33N 43°16' E 006°37'0 0.0
2015-Aug-23 21:33N 43°16' E 006°37'0 0.0
2015-Aug-23 20:33N 43°16' E 006°37'0 0.0
2015-Aug-23 19:33N 43°16' E 006°37'0 0.0
2015-Aug-23 18:33N 43°16' E 006°37'0 0.0
2015-Aug-23 17:33N 43°16' E 006°37'0 0.0
2015-Aug-23 16:33N 43°16' E 006°37'0 0.0
2015-Aug-23 15:33N 43°16' E 006°37'0 0.0
2015-Aug-23 14:31N 43°16' E 006°37'0 0.0
2015-Aug-23 13:32N 43°16' E 006°37'0 0.0
2015-Aug-23 12:31N 43°16' E 006°37'0 0.3
2015-Aug-23 11:34N 43°17' E 006°37'0 0.1
2015-Aug-23 10:34N 43°17' E 006°37'0 0.0
2015-Aug-23 09:33N 43°17' E 006°37'0 0.0
2015-Aug-22 21:29N 43°17' E 006°37'0 0.0
2015-Aug-22 20:33N 43°17' E 006°37'0 0.0
2015-Aug-22 19:33N 43°17' E 006°37'4 4.4
2015-Aug-22 18:33N 43°16' E 006°43'  
Track history (hours):
 
Tides and Currents Weather Stations Pressure Air Temp Water Temp Dewpoint Dewpoint Depression Visibility Wind Speed Wind Dir Waves Ship Positions

My Little Violet

Last reported at 2015-Sep-01 18:31 UTC. Time now 2015-Sep-02 06:33 UTC.
Position N 43°38' E 007°30'.

Length 45 m.

Type: Pleasure craft. MMSI: 319496000.

Date/timePositionNaut miles runAvg speedWind from/ knotsBaromVisibWave heightAir tempDewpointWater temp
2015-Sep-01 18:31N 43°38' E 007°30'1010.5
2015-Sep-01 17:33N 43°34' E 007°17'1110.8
2015-Sep-01 16:33N 43°30' E 007°03'5 4.9
2015-Sep-01 15:33N 43°31' E 006°57'0 0.0
2015-Sep-01 14:33N 43°31' E 006°57'0 0.0
2015-Sep-01 13:33N 43°31' E 006°57'6 5.9
2015-Sep-01 12:33N 43°26' E 006°55'1111.5
2015-Sep-01 11:33N 43°19' E 006°42'4 4.1
2015-Sep-01 10:33N 43°17' E 006°38'0 0.0
2015-Sep-01 09:33N 43°17' E 006°38'0 0.0
2015-Sep-01 08:33N 43°17' E 006°38'0 0.0
2015-Sep-01 07:33N 43°17' E 006°38'0 0.0
2015-Aug-31 20:33N 43°17' E 006°38'0 0.0
2015-Aug-31 19:34N 43°17' E 006°38'0 0.0
2015-Aug-31 18:34N 43°17' E 006°38'0 0.0
2015-Aug-31 17:34N 43°17' E 006°38'0 0.0
2015-Aug-31 16:32N 43°17' E 006°38'0 0.0
2015-Aug-31 15:33N 43°17' E 006°38'0 0.0
2015-Aug-31 14:33N 43°17' E 006°38'0 0.0
2015-Aug-31 13:34N 43°17' E 006°38'0 0.0
2015-Aug-31 12:34N 43°17' E 006°38'0 0.0
2015-Aug-31 11:33N 43°17' E 006°38'0 0.0
2015-Aug-31 10:33N 43°17' E 006°38'0 0.0
2015-Aug-31 09:33N 43°17' E 006°38'0 0.0
2015-Aug-31 08:33N 43°17' E 006°38'0 0.0
2015-Aug-31 07:33N 43°17' E 006°38'0 0.0
2015-Aug-31 06:33N 43°17' E 006°38'0 0.0
2015-Aug-31 05:33N 43°17' E 006°38'0 0.0
2015-Aug-31 04:34N 43°17' E 006°38'0 0.0
2015-Aug-31 03:33N 43°17' E 006°38'0 0.0
2015-Aug-31 02:33N 43°17' E 006°38'0 0.0
2015-Aug-31 01:33N 43°17' E 006°38'0 0.0
2015-Aug-31 00:34N 43°17' E 006°38'0 0.0
2015-Aug-30 23:33N 43°17' E 006°38'0 0.0
2015-Aug-30 22:33N 43°17' E 006°38'0 0.0
2015-Aug-30 21:33N 43°17' E 006°38'0 0.0
2015-Aug-30 20:33N 43°17' E 006°38'0 0.0
2015-Aug-30 19:33N 43°17' E 006°38'1 1.2
2015-Aug-30 18:33N 43°17' E 006°39'3 3.4
2015-Aug-30 17:33N 43°14' E 006°40'0 0.0
2015-Aug-30 16:34N 43°14' E 006°40'0 0.0
2015-Aug-30 15:33N 43°14' E 006°40'0 0.0
2015-Aug-30 14:33N 43°14' E 006°40'0 0.0
2015-Aug-30 13:34N 43°14' E 006°40'0 0.0
2015-Aug-30 12:33N 43°14' E 006°40'3 3.2
2015-Aug-30 11:33N 43°16' E 006°38'0 0.0
2015-Aug-29 19:30N 43°16' E 006°38'0 0.0
2015-Aug-29 18:33N 43°16' E 006°38'0 0.0
2015-Aug-29 16:31N 43°16' E 006°38'0 0.0
2015-Aug-29 15:29N 43°16' E 006°38'3 3.2
2015-Aug-29 14:33N 43°14' E 006°41'1 0.7
2015-Aug-29 13:33N 43°14' E 006°40'0 0.0
2015-Aug-29 12:34N 43°14' E 006°40'0 0.0
2015-Aug-29 11:33N 43°14' E 006°40'3 3.0
2015-Aug-29 10:33N 43°17' E 006°39'2 1.5
2015-Aug-29 09:33N 43°17' E 006°37'0 0.0
2015-Aug-29 08:33N 43°17' E 006°37'0 0.0
2015-Aug-28 22:08N 43°17' E 006°37'0 0.0
2015-Aug-28 21:33N 43°17' E 006°37'0 0.0
2015-Aug-28 20:33N 43°17' E 006°37'0 0.0
2015-Aug-28 19:33N 43°17' E 006°37'2 2.1
2015-Aug-28 18:33N 43°17' E 006°40'4 3.7
2015-Aug-28 17:33N 43°14' E 006°40'0 0.0
2015-Aug-28 16:33N 43°14' E 006°40'0 0.0
2015-Aug-28 15:33N 43°14' E 006°40'0 0.0
2015-Aug-28 14:33N 43°14' E 006°40'0 0.0
2015-Aug-28 13:33N 43°14' E 006°40'0 0.0
2015-Aug-28 12:33N 43°14' E 006°40'4 3.6
2015-Aug-28 11:33N 43°16' E 006°37'0 0.1
2015-Aug-28 10:33N 43°16' E 006°37'0 0.0
2015-Aug-28 09:33N 43°16' E 006°37'1 0.6
2015-Aug-28 08:33N 43°16' E 006°38'0 0.0
2015-Aug-27 21:03N 43°16' E 006°38'0 0.0
2015-Aug-27 18:21N 43°16' E 006°38'0 0.0
2015-Aug-27 16:27N 43°16' E 006°38'0 0.0
2015-Aug-27 13:24N 43°16' E 006°38'0 0.0
2015-Aug-27 12:30N 43°16' E 006°38'0 0.0
2015-Aug-27 11:33N 43°16' E 006°38'0 0.0
2015-Aug-27 07:26N 43°16' E 006°38'0 0.0
2015-Aug-27 06:32N 43°16' E 006°38'0 0.0
2015-Aug-27 05:32N 43°16' E 006°38'0 0.0
2015-Aug-27 04:32N 43°16' E 006°38'0 0.0
2015-Aug-27 03:32N 43°16' E 006°38'0 0.0
2015-Aug-27 02:32N 43°16' E 006°38'0 0.0
2015-Aug-27 01:32N 43°16' E 006°38'0 0.0
2015-Aug-27 00:32N 43°16' E 006°38'0 0.0
2015-Aug-26 23:32N 43°16' E 006°38'0 0.0
2015-Aug-26 22:32N 43°16' E 006°38'0 0.0
2015-Aug-26 21:09N 43°16' E 006°38'0 0.0
2015-Aug-26 20:32N 43°16' E 006°38'0 0.0
2015-Aug-26 19:32N 43°16' E 006°38'0 0.0
2015-Aug-26 18:26N 43°16' E 006°38'0 0.0
2015-Aug-26 17:32N 43°16' E 006°38'0 0.0
2015-Aug-26 16:32N 43°16' E 006°38'0 0.0
2015-Aug-26 15:32N 43°16' E 006°38'0 0.0
2015-Aug-26 14:32N 43°16' E 006°38'0 0.0
2015-Aug-26 13:32N 43°16' E 006°38'0 0.0
2015-Aug-26 12:33N 43°16' E 006°38'0 0.0
2015-Aug-26 11:33N 43°16' E 006°38'0 0.0
2015-Aug-26 10:33N 43°16' E 006°38'0 0.0
2015-Aug-26 09:33N 43°16' E 006°38'0 0.0
2015-Aug-26 08:33N 43°16' E 006°38'0 0.0
2015-Aug-26 07:33N 43°16' E 006°38'0 0.0
2015-Aug-26 06:33N 43°16' E 006°38'0 0.0
2015-Aug-26 05:33N 43°16' E 006°38'0 0.0
2015-Aug-26 04:33N 43°16' E 006°38'0 0.0
2015-Aug-26 03:33N 43°16' E 006°38'0 0.0
2015-Aug-26 02:33N 43°16' E 006°38'0 0.0
2015-Aug-26 01:33N 43°16' E 006°38'0 0.0
2015-Aug-26 00:33N 43°16' E 006°38'0 0.0
2015-Aug-25 23:33N 43°16' E 006°38'0 0.0
2015-Aug-25 22:33N 43°16' E 006°38'0 0.0
2015-Aug-25 21:33N 43°16' E 006°38'0 0.0
2015-Aug-25 20:33N 43°16' E 006°38'0 0.0
2015-Aug-25 19:33N 43°16' E 006°38'0 0.0
2015-Aug-25 18:33N 43°16' E 006°38'0 0.0
2015-Aug-25 17:33N 43°16' E 006°38'0 0.0
2015-Aug-25 16:33N 43°16' E 006°38'0 0.0
2015-Aug-25 15:33N 43°16' E 006°38'0 0.0
2015-Aug-25 14:33N 43°16' E 006°38'0 0.0
2015-Aug-25 13:33N 43°16' E 006°38'0 0.0
2015-Aug-25 12:33N 43°16' E 006°38'0 0.0
2015-Aug-25 11:33N 43°16' E 006°38'0 0.0
2015-Aug-25 10:33N 43°16' E 006°38'0 0.0
2015-Aug-25 09:33N 43°16' E 006°38'0 0.0
2015-Aug-25 08:33N 43°16' E 006°38'0 0.0
2015-Aug-25 07:33N 43°16' E 006°38'0 0.0
2015-Aug-25 06:33N 43°16' E 006°38'0 0.0
2015-Aug-25 05:33N 43°16' E 006°38'0 0.0
2015-Aug-25 04:33N 43°16' E 006°38'0 0.0
2015-Aug-25 03:33N 43°16' E 006°38'0 0.0
2015-Aug-25 02:33N 43°16' E 006°38'0 0.0
2015-Aug-25 01:33N 43°16' E 006°38'0 0.0
2015-Aug-25 00:33N 43°16' E 006°38'0 0.0
2015-Aug-24 23:33N 43°16' E 006°38'0 0.0
2015-Aug-24 22:33N 43°16' E 006°38'0 0.0
2015-Aug-24 21:33N 43°16' E 006°38'0 0.0
2015-Aug-24 20:33N 43°16' E 006°38'0 0.0
2015-Aug-24 19:33N 43°16' E 006°38'0 0.0
2015-Aug-24 18:33N 43°16' E 006°38'0 0.0
2015-Aug-24 17:33N 43°16' E 006°38'0 0.0
2015-Aug-24 16:25N 43°16' E 006°38'0 0.0
2015-Aug-24 15:33N 43°16' E 006°38'0 0.0
2015-Aug-24 14:22N 43°16' E 006°38'0 0.0
2015-Aug-24 13:33N 43°16' E 006°38'0 0.0
2015-Aug-24 12:33N 43°16' E 006°38'0 0.1
2015-Aug-24 11:32N 43°16' E 006°38'0 0.4
2015-Aug-24 10:33N 43°16' E 006°37'0 0.0
2015-Aug-24 09:34N 43°16' E 006°37'0 0.0
2015-Aug-24 08:33N 43°16' E 006°37'0 0.0
2015-Aug-24 07:33N 43°16' E 006°37'0 0.0
2015-Aug-24 06:34N 43°16' E 006°37'0 0.0
2015-Aug-24 05:33N 43°16' E 006°37'0 0.0
2015-Aug-24 04:33N 43°16' E 006°37'0 0.0
2015-Aug-24 03:33N 43°16' E 006°37'0 0.0
2015-Aug-24 02:33N 43°16' E 006°37'0 0.0
2015-Aug-24 01:33N 43°16' E 006°37'0 0.0
2015-Aug-24 00:33N 43°16' E 006°37'0 0.0
2015-Aug-23 23:33N 43°16' E 006°37'0 0.0
2015-Aug-23 22:33N 43°16' E 006°37'0 0.0
2015-Aug-23 21:33N 43°16' E 006°37'0 0.0
2015-Aug-23 20:33N 43°16' E 006°37'0 0.0
2015-Aug-23 19:33N 43°16' E 006°37'0 0.0
2015-Aug-23 18:33N 43°16' E 006°37'0 0.0
2015-Aug-23 17:33N 43°16' E 006°37'0 0.0
2015-Aug-23 16:33N 43°16' E 006°37'0 0.0
2015-Aug-23 15:33N 43°16' E 006°37'0 0.0
2015-Aug-23 14:31N 43°16' E 006°37'0 0.0
2015-Aug-23 13:32N 43°16' E 006°37'0 0.0
2015-Aug-23 12:31N 43°16' E 006°37'0 0.3
2015-Aug-23 11:34N 43°17' E 006°37'0 0.1
2015-Aug-23 10:34N 43°17' E 006°37'0 0.0
2015-Aug-23 09:33N 43°17' E 006°37'0 0.0
2015-Aug-22 21:29N 43°17' E 006°37'0 0.0
2015-Aug-22 20:33N 43°17' E 006°37'0 0.0
2015-Aug-22 19:33N 43°17' E 006°37'4 4.4
2015-Aug-22 18:33N 43°16' E 006°43'  

Dump ship's entire track history